createdAt,value
2023-02-26T00:00:37.958Z,100.00
2023-02-26T00:01:40.371Z,100.00
2023-02-26T00:02:46.226Z,100.00
2023-02-26T00:03:50.293Z,100.00
2023-02-26T00:04:53.169Z,100.00
2023-02-26T00:06:01.057Z,100.00
2023-02-26T00:07:05.501Z,100.00
2023-02-26T00:08:08.087Z,100.00
2023-02-26T00:09:10.357Z,100.00
2023-02-26T00:10:15.993Z,100.00
2023-02-26T00:11:19.496Z,100.00
2023-02-26T00:12:22.324Z,100.00
2023-02-26T00:13:25.596Z,100.00
2023-02-26T00:14:29.270Z,100.00
2023-02-26T00:15:32.412Z,100.00
2023-02-26T00:16:36.251Z,100.00
2023-02-26T00:17:57.938Z,100.00
2023-02-26T00:19:05.663Z,100.00
2023-02-26T00:20:11.607Z,100.00
2023-02-26T00:21:17.676Z,100.00
2023-02-26T00:22:22.966Z,100.00
2023-02-26T00:23:25.897Z,100.00
2023-02-26T00:24:28.338Z,100.00
2023-02-26T00:25:32.463Z,100.00
2023-02-26T00:26:35.384Z,100.00
2023-02-26T00:27:38.351Z,100.00
2023-02-26T00:28:41.498Z,100.00
2023-02-26T00:29:44.985Z,100.00
2023-02-26T00:30:48.674Z,100.00
2023-02-26T00:31:51.970Z,100.00
2023-02-26T00:32:55.750Z,100.00
2023-02-26T00:34:00.079Z,100.00
2023-02-26T00:35:03.588Z,100.00
2023-02-26T00:36:23.856Z,100.00
2023-02-26T00:37:47.222Z,100.00
2023-02-26T00:38:58.906Z,100.00
2023-02-26T00:40:05.947Z,100.00
2023-02-26T00:41:10.644Z,100.00
2023-02-26T00:42:14.945Z,100.00
2023-02-26T00:43:25.933Z,100.00
2023-02-26T00:44:30.758Z,100.00
2023-02-26T00:45:36.028Z,100.00
2023-02-26T00:47:05.360Z,100.00
2023-02-26T00:48:32.496Z,100.00
2023-02-26T00:50:01.327Z,100.00
2023-02-26T00:51:26.968Z,100.00
2023-02-26T00:52:40.437Z,100.00
2023-02-26T00:53:55.013Z,99.63
2023-02-26T00:54:58.724Z,99.19
2023-02-26T00:56:01.176Z,99.15
2023-02-26T00:57:05.405Z,99.06
2023-02-26T00:58:07.881Z,98.61
2023-02-26T00:59:10.125Z,98.63
2023-02-26T01:00:13.664Z,98.55
2023-02-26T01:01:16.096Z,98.39
2023-02-26T01:02:18.263Z,98.40
2023-02-26T01:03:20.905Z,98.62
2023-02-26T01:04:24.304Z,98.79
2023-02-26T01:05:27.523Z,98.92
2023-02-26T01:06:33.816Z,99.28
2023-02-26T01:07:42.657Z,99.30
2023-02-26T01:09:00.365Z,99.37
2023-02-26T01:10:03.714Z,99.59
2023-02-26T01:11:06.577Z,99.61
2023-02-26T01:12:12.680Z,99.38
2023-02-26T01:13:17.689Z,99.38
2023-02-26T01:14:20.947Z,99.26
2023-02-26T01:15:27.085Z,99.26
2023-02-26T01:16:33.491Z,99.22
2023-02-26T01:17:56.221Z,98.96
2023-02-26T01:19:07.866Z,98.79
2023-02-26T01:20:21.565Z,98.79
2023-02-26T01:21:27.375Z,98.77
2023-02-26T01:22:51.811Z,98.48
2023-02-26T01:23:54.182Z,98.41
2023-02-26T01:25:12.416Z,98.16
2023-02-26T01:26:25.289Z,98.46
2023-02-26T01:27:28.150Z,98.28
2023-02-26T01:28:31.649Z,98.35
2023-02-26T01:29:34.996Z,98.43
2023-02-26T01:30:38.772Z,98.14
2023-02-26T01:31:57.621Z,97.98
2023-02-26T01:33:04.482Z,97.76
2023-02-26T01:34:13.342Z,97.61
2023-02-26T01:35:39.385Z,97.60
2023-02-26T01:36:45.468Z,97.64
2023-02-26T01:38:03.622Z,97.65
2023-02-26T01:40:59.735Z,97.59
2023-02-26T01:42:20.797Z,97.72
2023-02-26T01:43:26.734Z,97.84
2023-02-26T01:44:35.661Z,97.91
2023-02-26T01:45:42.492Z,97.74
2023-02-26T01:47:03.417Z,97.61
2023-02-26T01:48:09.339Z,97.47
2023-02-26T01:49:18.591Z,97.43
2023-02-26T01:50:31.639Z,97.56
2023-02-26T01:51:49.881Z,97.56
2023-02-26T01:53:04.800Z,97.46
2023-02-26T01:54:08.913Z,97.39
2023-02-26T01:55:11.693Z,97.27
2023-02-26T01:56:17.634Z,97.12
2023-02-26T01:57:23.069Z,97.03
2023-02-26T01:58:30.478Z,96.94
2023-02-26T01:59:36.721Z,97.09
2023-02-26T02:00:39.420Z,97.15
2023-02-26T02:01:41.835Z,97.30
2023-02-26T02:02:45.916Z,97.10
2023-02-26T02:03:51.261Z,96.83
2023-02-26T02:04:53.983Z,96.50
2023-02-26T02:06:06.314Z,96.36
2023-02-26T02:07:08.966Z,96.36
2023-02-26T02:08:12.492Z,96.40
2023-02-26T02:09:14.791Z,96.08
2023-02-26T02:10:19.024Z,96.04
2023-02-26T02:11:22.111Z,95.84
2023-02-26T02:12:31.726Z,96.01
2023-02-26T02:13:49.897Z,95.74
2023-02-26T02:15:17.379Z,95.46
2023-02-26T02:17:52.287Z,95.51
2023-02-26T02:19:31.549Z,95.42
2023-02-26T02:20:49.560Z,95.49
2023-02-26T02:24:35.911Z,95.59
2023-02-26T02:25:55.292Z,95.70
2023-02-26T02:27:20.105Z,95.72
2023-02-26T02:28:55.360Z,95.64
2023-02-26T02:30:06.858Z,95.61
2023-02-26T02:33:52.993Z,95.87
2023-02-26T02:35:01.974Z,95.51
2023-02-26T02:36:08.041Z,95.48
2023-02-26T02:37:20.397Z,95.33
2023-02-26T02:38:44.996Z,95.24
2023-02-26T02:39:54.748Z,95.18
2023-02-26T02:41:05.683Z,95.08
2023-02-26T02:42:27.979Z,94.97
2023-02-26T02:43:33.936Z,94.94
2023-02-26T02:44:39.594Z,94.88
2023-02-26T02:45:51.590Z,95.10
2023-02-26T02:46:56.944Z,94.50
2023-02-26T02:48:03.913Z,94.22
2023-02-26T02:49:22.104Z,94.16
2023-02-26T02:50:37.071Z,93.99
2023-02-26T02:51:43.017Z,94.01
2023-02-26T02:52:58.302Z,94.07
2023-02-26T02:54:10.304Z,94.14
2023-02-26T02:55:19.585Z,94.17
2023-02-26T02:56:38.456Z,94.18
2023-02-26T02:57:44.493Z,94.12
2023-02-26T02:58:50.525Z,94.19
2023-02-26T02:59:56.799Z,94.08
2023-02-26T03:01:02.911Z,93.88
2023-02-26T03:02:27.243Z,93.73
2023-02-26T03:03:42.392Z,93.62
2023-02-26T03:04:45.904Z,93.58
2023-02-26T03:05:49.393Z,93.51
2023-02-26T03:06:52.117Z,93.56
2023-02-26T03:09:14.179Z,93.36
2023-02-26T03:10:17.766Z,93.29
2023-02-26T03:11:20.570Z,93.07
2023-02-26T03:12:26.688Z,92.87
2023-02-26T03:13:29.003Z,92.95
2023-02-26T03:14:33.672Z,92.91
2023-02-26T03:15:50.127Z,92.89
2023-02-26T03:17:01.706Z,92.82
2023-02-26T03:18:14.752Z,92.81
2023-02-26T03:19:33.825Z,92.69
2023-02-26T03:20:41.389Z,92.53
2023-02-26T03:21:56.077Z,92.31
2023-02-26T03:23:16.153Z,92.10
2023-02-26T03:24:28.897Z,92.18
2023-02-26T03:25:53.828Z,92.28
2023-02-26T03:27:10.412Z,92.01
2023-02-26T03:28:26.814Z,91.95
2023-02-26T03:29:42.279Z,91.98
2023-02-26T03:31:00.601Z,92.24
2023-02-26T03:32:10.068Z,92.24
2023-02-26T03:33:25.472Z,92.33
2023-02-26T03:34:40.955Z,92.15
2023-02-26T03:36:05.363Z,92.39
2023-02-26T03:37:14.672Z,92.28
2023-02-26T03:39:40.718Z,92.24
2023-02-26T03:40:55.799Z,92.42
2023-02-26T03:42:08.359Z,92.43
2023-02-26T03:43:34.696Z,92.66
2023-02-26T03:44:47.797Z,92.66
2023-02-26T03:45:54.826Z,92.78
2023-02-26T03:47:00.954Z,93.02
2023-02-26T03:48:07.371Z,93.18
2023-02-26T03:49:13.377Z,93.29
2023-02-26T03:50:23.446Z,93.29
2023-02-26T03:51:29.916Z,93.47
2023-02-26T03:52:40.509Z,93.51
2023-02-26T03:53:50.930Z,93.31
2023-02-26T03:55:04.767Z,93.25
2023-02-26T03:56:24.977Z,93.38
2023-02-26T03:57:29.786Z,93.18
2023-02-26T03:58:46.250Z,93.29
2023-02-26T03:59:51.049Z,93.36
2023-02-26T04:01:09.346Z,93.31
2023-02-26T04:02:15.203Z,93.33
2023-02-26T04:03:21.587Z,93.33
2023-02-26T04:04:36.614Z,93.48
2023-02-26T04:05:42.344Z,93.43
2023-02-26T04:06:46.147Z,93.29
2023-02-26T04:07:49.762Z,93.23
2023-02-26T04:08:53.572Z,93.30
2023-02-26T04:09:56.819Z,93.28
2023-02-26T04:11:13.441Z,93.27
2023-02-26T04:12:22.808Z,93.25
2023-02-26T04:13:26.262Z,93.24
2023-02-26T04:14:28.923Z,93.25
2023-02-26T04:15:31.696Z,93.35
2023-02-26T04:16:34.198Z,93.36
2023-02-26T04:17:36.679Z,93.25
2023-02-26T04:18:40.214Z,93.22
2023-02-26T04:19:43.053Z,93.12
2023-02-26T04:20:45.861Z,93.08
2023-02-26T04:21:48.277Z,93.19
2023-02-26T04:22:51.144Z,93.19
2023-02-26T04:23:56.145Z,93.18
2023-02-26T04:24:58.416Z,93.12
2023-02-26T04:26:01.142Z,93.11
2023-02-26T04:27:04.884Z,93.21
2023-02-26T04:28:08.303Z,93.24
2023-02-26T04:29:11.124Z,93.30
2023-02-26T04:30:14.046Z,93.14
2023-02-26T04:31:16.459Z,93.14
2023-02-26T04:32:19.564Z,93.14
2023-02-26T04:33:22.696Z,93.18
2023-02-26T04:34:25.153Z,93.37
2023-02-26T04:35:28.678Z,93.48
2023-02-26T04:36:33.074Z,93.47
2023-02-26T04:37:35.604Z,93.45
2023-02-26T04:38:38.545Z,93.55
2023-02-26T04:39:41.317Z,93.42
2023-02-26T04:40:44.354Z,93.62
2023-02-26T04:41:48.226Z,93.51
2023-02-26T04:42:51.074Z,93.54
2023-02-26T04:43:55.462Z,93.45
2023-02-26T04:45:00.009Z,93.52
2023-02-26T04:46:03.894Z,93.37
2023-02-26T04:47:07.343Z,93.42
2023-02-26T04:48:10.358Z,93.37
2023-02-26T04:49:12.615Z,93.33
2023-02-26T04:50:17.470Z,93.25
2023-02-26T04:51:22.419Z,93.21
2023-02-26T04:52:27.238Z,93.27
2023-02-26T04:53:30.365Z,93.37
2023-02-26T04:54:32.896Z,93.35
2023-02-26T04:55:36.733Z,93.18
2023-02-26T04:56:41.089Z,93.06
2023-02-26T04:57:43.529Z,93.02
2023-02-26T04:58:46.197Z,92.86
2023-02-26T04:59:50.522Z,92.55
2023-02-26T05:00:54.811Z,92.33
2023-02-26T05:01:57.546Z,92.48
2023-02-26T05:03:00.477Z,92.62
2023-02-26T05:04:03.030Z,92.71
2023-02-26T05:05:07.703Z,92.94
2023-02-26T05:06:10.294Z,92.92
2023-02-26T05:07:14.110Z,93.09
2023-02-26T05:08:17.785Z,93.00
2023-02-26T05:09:20.453Z,92.46
2023-02-26T05:10:23.645Z,92.46
2023-02-26T05:11:27.170Z,92.81
2023-02-26T05:12:29.842Z,92.36
2023-02-26T05:13:32.342Z,91.99
2023-02-26T05:14:35.205Z,91.71
2023-02-26T05:15:37.642Z,91.37
2023-02-26T05:16:40.070Z,90.94
2023-02-26T05:17:43.124Z,90.99
2023-02-26T05:18:46.350Z,90.71
2023-02-26T05:19:49.387Z,90.87
2023-02-26T05:20:56.705Z,91.26
2023-02-26T05:21:59.092Z,91.52
2023-02-26T05:23:01.854Z,91.29
2023-02-26T05:24:04.808Z,91.61
2023-02-26T05:25:08.832Z,91.60
2023-02-26T05:26:11.732Z,91.49
2023-02-26T05:27:14.569Z,91.55
2023-02-26T05:28:19.314Z,91.27
2023-02-26T05:29:22.179Z,91.15
2023-02-26T05:30:25.691Z,91.49
2023-02-26T05:31:30.429Z,91.52
2023-02-26T05:32:33.364Z,91.34
2023-02-26T05:33:35.949Z,91.19
2023-02-26T05:34:38.801Z,91.40
2023-02-26T05:35:41.267Z,91.07
2023-02-26T05:36:44.349Z,90.65
2023-02-26T05:37:46.669Z,90.75
2023-02-26T05:38:49.002Z,90.66
2023-02-26T05:39:51.491Z,90.36
2023-02-26T05:40:57.054Z,89.92
2023-02-26T05:41:59.351Z,89.72
2023-02-26T05:43:02.302Z,89.99
2023-02-26T05:44:04.709Z,89.92
2023-02-26T05:45:08.560Z,89.17
2023-02-26T05:46:12.845Z,89.04
2023-02-26T05:47:17.366Z,88.49
2023-02-26T05:48:19.930Z,88.53
2023-02-26T05:49:22.737Z,87.40
2023-02-26T05:50:25.223Z,86.79
2023-02-26T05:51:28.711Z,86.40
2023-02-26T05:52:31.405Z,86.33
2023-02-26T05:53:34.345Z,86.33
2023-02-26T05:54:37.384Z,86.15
2023-02-26T05:55:39.853Z,86.02
2023-02-26T05:56:42.724Z,86.08
2023-02-26T05:57:45.173Z,86.36
2023-02-26T05:58:47.663Z,86.35
2023-02-26T05:59:50.805Z,87.00
2023-02-26T06:00:53.743Z,87.62
2023-02-26T06:01:56.425Z,87.94
2023-02-26T06:02:59.431Z,88.52
2023-02-26T06:04:01.892Z,88.77
2023-02-26T06:05:05.681Z,89.09
2023-02-26T06:06:08.843Z,89.29
2023-02-26T06:07:11.161Z,89.45
2023-02-26T06:08:15.106Z,89.67
2023-02-26T06:09:17.611Z,89.73
2023-02-26T06:10:20.326Z,89.87
2023-02-26T06:11:25.476Z,90.17
2023-02-26T06:12:28.073Z,90.21
2023-02-26T06:13:30.421Z,90.43
2023-02-26T06:14:34.461Z,90.40
2023-02-26T06:15:36.973Z,90.34
2023-02-26T06:16:40.056Z,90.42
2023-02-26T06:17:42.606Z,90.19
2023-02-26T06:18:44.972Z,89.91
2023-02-26T06:19:47.312Z,89.99
2023-02-26T06:20:50.035Z,89.47
2023-02-26T06:21:52.575Z,89.43
2023-02-26T06:22:54.989Z,89.48
2023-02-26T06:23:57.761Z,89.36
2023-02-26T06:25:00.066Z,89.61
2023-02-26T06:26:03.145Z,89.89
2023-02-26T06:27:06.361Z,89.91
2023-02-26T06:28:09.052Z,89.71
2023-02-26T06:29:15.155Z,89.76
2023-02-26T06:30:19.468Z,89.44
2023-02-26T06:31:21.886Z,89.06
2023-02-26T06:32:24.279Z,88.95
2023-02-26T06:33:27.033Z,88.89
2023-02-26T06:34:29.647Z,88.89
2023-02-26T06:35:32.001Z,88.73
2023-02-26T06:36:34.846Z,88.57
2023-02-26T06:37:37.285Z,88.45
2023-02-26T06:38:40.799Z,88.33
2023-02-26T06:39:43.175Z,88.33
2023-02-26T06:40:48.496Z,88.13
2023-02-26T06:41:51.263Z,88.05
2023-02-26T06:42:53.782Z,87.95
2023-02-26T06:43:56.608Z,88.23
2023-02-26T06:44:58.944Z,88.67
2023-02-26T06:46:02.298Z,88.72
2023-02-26T06:47:06.246Z,88.69
2023-02-26T06:48:15.336Z,88.36
2023-02-26T06:49:20.105Z,88.42
2023-02-26T06:50:22.517Z,88.06
2023-02-26T06:51:24.881Z,88.05
2023-02-26T06:52:27.236Z,87.96
2023-02-26T06:53:30.175Z,87.87
2023-02-26T06:54:33.133Z,88.27
2023-02-26T06:55:37.496Z,88.62
2023-02-26T06:56:39.625Z,88.56
2023-02-26T06:57:41.980Z,88.41
2023-02-26T06:58:44.363Z,88.15
2023-02-26T06:59:46.821Z,88.05
2023-02-26T07:00:49.188Z,88.57
2023-02-26T07:01:51.567Z,88.80
2023-02-26T07:02:53.837Z,88.66
2023-02-26T07:03:56.490Z,88.44
2023-02-26T07:04:59.072Z,88.97
2023-02-26T07:06:23.681Z,88.94
2023-02-26T07:07:06.599Z,88.70
2023-02-26T07:08:09.630Z,88.48
2023-02-26T07:09:13.302Z,88.61
2023-02-26T07:10:16.896Z,88.27
2023-02-26T07:11:19.290Z,88.17
2023-02-26T07:12:21.752Z,88.18
2023-02-26T07:13:24.714Z,88.15
2023-02-26T07:14:27.209Z,88.21
2023-02-26T07:15:30.057Z,87.90
2023-02-26T07:16:33.462Z,87.83
2023-02-26T07:17:37.379Z,87.83
2023-02-26T07:18:39.908Z,87.96
2023-02-26T07:19:43.811Z,88.03
2023-02-26T07:20:50.765Z,88.11
2023-02-26T07:21:54.448Z,88.07
2023-02-26T07:22:57.050Z,87.71
2023-02-26T07:23:59.600Z,87.47
2023-02-26T07:25:02.780Z,87.39
2023-02-26T07:26:05.914Z,87.19
2023-02-26T07:27:08.546Z,87.03
2023-02-26T07:28:11.080Z,86.82
2023-02-26T07:29:13.908Z,86.95
2023-02-26T07:30:16.996Z,87.01
2023-02-26T07:31:19.281Z,87.00
2023-02-26T07:32:22.071Z,86.59
2023-02-26T07:33:26.068Z,86.67
2023-02-26T07:34:28.675Z,86.62
2023-02-26T07:35:31.010Z,86.60
2023-02-26T07:36:33.350Z,86.69
2023-02-26T07:37:36.124Z,86.67
2023-02-26T07:38:38.340Z,86.52
2023-02-26T07:39:41.051Z,86.45
2023-02-26T07:40:44.572Z,85.87
2023-02-26T07:41:47.537Z,85.49
2023-02-26T07:42:50.946Z,85.45
2023-02-26T07:43:54.642Z,85.22
2023-02-26T07:44:56.883Z,85.04
2023-02-26T07:47:01.917Z,85.11
2023-02-26T07:48:04.825Z,84.46
2023-02-26T07:49:07.044Z,84.37
2023-02-26T07:50:12.013Z,84.43
2023-02-26T07:51:20.981Z,85.18
2023-02-26T07:52:23.396Z,85.27
2023-02-26T07:53:26.484Z,85.17
2023-02-26T07:54:29.247Z,84.81
2023-02-26T07:55:31.684Z,84.94
2023-02-26T07:56:34.107Z,84.62
2023-02-26T07:57:36.438Z,84.62
2023-02-26T07:58:38.798Z,84.78
2023-02-26T07:59:41.137Z,85.39
2023-02-26T08:00:43.766Z,85.61
2023-02-26T08:01:46.236Z,85.34
2023-02-26T08:02:48.728Z,84.65
2023-02-26T08:03:50.914Z,84.52
2023-02-26T08:04:53.506Z,84.51
2023-02-26T08:05:56.567Z,85.00
2023-02-26T08:07:01.008Z,84.69
2023-02-26T08:08:03.431Z,85.28
2023-02-26T08:09:05.989Z,84.85
2023-02-26T08:10:11.317Z,84.30
2023-02-26T08:11:13.723Z,84.35
2023-02-26T08:12:16.122Z,84.48
2023-02-26T08:13:19.304Z,84.70
2023-02-26T08:14:22.239Z,84.38
2023-02-26T08:15:25.232Z,83.29
2023-02-26T08:16:28.681Z,83.80
2023-02-26T08:17:31.202Z,83.77
2023-02-26T08:18:34.977Z,84.28
2023-02-26T08:19:37.820Z,84.17
2023-02-26T08:20:40.450Z,84.07
2023-02-26T08:21:42.588Z,83.01
2023-02-26T08:22:44.806Z,82.97
2023-02-26T08:23:48.955Z,83.11
2023-02-26T08:24:51.799Z,82.80
2023-02-26T08:26:02.368Z,82.56
2023-02-26T08:27:05.876Z,81.84
2023-02-26T08:28:08.035Z,81.81
2023-02-26T08:29:10.268Z,81.61
2023-02-26T08:30:13.600Z,82.14
2023-02-26T08:31:16.485Z,82.47
2023-02-26T08:32:20.076Z,81.88
2023-02-26T08:33:25.676Z,80.86
2023-02-26T08:34:28.255Z,80.33
2023-02-26T08:35:30.399Z,79.93
2023-02-26T08:36:35.227Z,80.02
2023-02-26T08:37:38.466Z,80.31
2023-02-26T08:38:40.797Z,80.38
2023-02-26T08:39:43.132Z,80.95
2023-02-26T08:40:47.817Z,80.73
2023-02-26T08:41:50.231Z,80.92
2023-02-26T08:42:52.539Z,80.43
2023-02-26T08:43:55.289Z,80.00
2023-02-26T08:44:57.738Z,80.62
2023-02-26T08:46:00.175Z,80.87
2023-02-26T08:47:03.402Z,80.75
2023-02-26T08:48:06.099Z,80.82
2023-02-26T08:49:09.302Z,81.54
2023-02-26T08:50:12.602Z,81.33
2023-02-26T08:51:14.931Z,81.33
2023-02-26T08:52:17.800Z,81.22
2023-02-26T08:53:20.190Z,81.26
2023-02-26T08:54:23.891Z,81.87
2023-02-26T08:55:26.720Z,81.97
2023-02-26T08:56:29.160Z,81.07
2023-02-26T08:57:31.571Z,81.07
2023-02-26T08:58:33.871Z,80.61
2023-02-26T08:59:36.170Z,80.45
2023-02-26T09:00:38.830Z,80.03
2023-02-26T09:01:41.770Z,80.25
2023-02-26T09:02:45.311Z,79.24
2023-02-26T09:03:47.787Z,79.99
2023-02-26T09:04:50.188Z,80.53
2023-02-26T09:05:52.641Z,79.95
2023-02-26T09:06:55.086Z,79.29
2023-02-26T09:07:57.986Z,79.20
2023-02-26T09:09:00.407Z,79.10
2023-02-26T09:10:03.667Z,79.71
2023-02-26T09:11:06.181Z,80.17
2023-02-26T09:12:08.444Z,80.67
2023-02-26T09:13:10.841Z,80.87
2023-02-26T09:14:14.160Z,80.68
2023-02-26T09:15:17.488Z,80.67
2023-02-26T09:16:21.500Z,79.52
2023-02-26T09:17:25.777Z,79.26
2023-02-26T09:18:29.323Z,78.63
2023-02-26T09:19:31.733Z,78.39
2023-02-26T09:20:34.936Z,78.50
2023-02-26T09:21:38.400Z,78.88
2023-02-26T09:22:42.227Z,79.06
2023-02-26T09:23:44.898Z,78.96
2023-02-26T09:24:47.698Z,92.53
2023-02-26T09:25:55.492Z,84.40
2023-02-26T09:26:59.124Z,83.37
2023-02-26T09:28:02.684Z,76.25
2023-02-26T09:29:05.472Z,79.06
2023-02-26T09:30:08.939Z,76.67
2023-02-26T09:31:11.949Z,74.81
2023-02-26T09:32:14.767Z,77.03
2023-02-26T09:33:17.823Z,74.31
2023-02-26T09:34:23.041Z,74.05
2023-02-26T09:35:26.647Z,76.76
2023-02-26T09:36:31.056Z,78.80
2023-02-26T09:37:34.188Z,75.51
2023-02-26T09:38:37.727Z,81.68
2023-02-26T09:39:40.047Z,82.31
2023-02-26T09:42:09.625Z,78.44
2023-02-26T09:43:27.062Z,77.12
2023-02-26T09:44:33.658Z,79.80
2023-02-26T09:45:44.461Z,85.77
2023-02-26T09:47:17.662Z,86.95
2023-02-26T09:48:24.682Z,84.10
2023-02-26T09:49:37.846Z,75.79
2023-02-26T09:50:49.868Z,74.55
2023-02-26T09:51:56.174Z,72.62
2023-02-26T09:53:11.513Z,74.74
2023-02-26T09:54:20.224Z,77.76
2023-02-26T09:55:32.771Z,78.44
2023-02-26T09:56:38.212Z,72.99
2023-02-26T09:57:46.476Z,80.40
2023-02-26T09:58:51.052Z,76.12
2023-02-26T09:59:54.264Z,73.47
2023-02-26T10:01:13.195Z,74.71
2023-02-26T10:02:23.731Z,81.11
2023-02-26T10:03:38.094Z,79.00
2023-02-26T10:04:44.858Z,77.45
2023-02-26T10:06:10.857Z,73.13
2023-02-26T10:07:33.704Z,74.07
2023-02-26T10:08:41.363Z,76.75
2023-02-26T10:10:05.485Z,79.93
2023-02-26T10:11:11.315Z,73.21
2023-02-26T10:12:21.167Z,71.71
2023-02-26T10:13:31.150Z,72.77
2023-02-26T10:15:00.357Z,71.89
2023-02-26T10:16:12.265Z,73.42
2023-02-26T10:18:37.377Z,74.45
2023-02-26T10:19:43.207Z,73.44
2023-02-26T10:20:58.820Z,73.67
2023-02-26T10:22:20.253Z,72.31
2023-02-26T10:23:45.346Z,72.51
2023-02-26T10:24:59.669Z,73.00
2023-02-26T10:26:21.293Z,72.29
2023-02-26T10:27:28.711Z,71.66
2023-02-26T10:28:38.417Z,71.53
2023-02-26T10:29:44.544Z,71.40
2023-02-26T10:32:45.159Z,69.38
2023-02-26T10:33:54.451Z,69.61
2023-02-26T10:35:01.629Z,69.22
2023-02-26T10:36:25.926Z,69.24
2023-02-26T10:37:50.640Z,69.38
2023-02-26T10:39:00.123Z,69.70
2023-02-26T10:40:37.657Z,69.29
2023-02-26T10:41:41.375Z,69.86
2023-02-26T10:44:31.106Z,69.49
2023-02-26T10:45:57.637Z,69.02
2023-02-26T10:49:05.464Z,69.74
2023-02-26T10:50:15.445Z,69.99
2023-02-26T10:51:25.704Z,69.14
2023-02-26T10:52:31.000Z,69.24
2023-02-26T10:53:35.563Z,69.24
2023-02-26T10:54:41.449Z,69.13
2023-02-26T10:55:50.030Z,69.37
2023-02-26T10:57:00.527Z,69.02
2023-02-26T10:58:06.805Z,67.84
2023-02-26T10:59:09.674Z,68.30
2023-02-26T11:00:18.867Z,67.74
2023-02-26T11:01:26.033Z,67.99
2023-02-26T11:02:44.869Z,66.98
2023-02-26T11:03:51.905Z,66.66
2023-02-26T11:05:07.226Z,67.16
2023-02-26T11:06:05.544Z,67.70
2023-02-26T11:07:09.420Z,67.69
2023-02-26T11:08:23.126Z,68.34
2023-02-26T11:09:28.874Z,67.81
2023-02-26T11:10:40.547Z,68.73
2023-02-26T11:11:55.844Z,68.69
2023-02-26T11:12:59.814Z,67.84
2023-02-26T11:14:08.477Z,68.16
2023-02-26T11:15:20.978Z,68.21
2023-02-26T11:16:23.643Z,68.46
2023-02-26T11:17:31.225Z,67.50
2023-02-26T11:18:43.857Z,68.88
2023-02-26T11:19:50.001Z,68.38
2023-02-26T11:21:00.527Z,68.50
2023-02-26T11:22:08.199Z,68.81
2023-02-26T11:23:15.555Z,68.50
2023-02-26T11:24:40.293Z,67.33
2023-02-26T11:25:44.347Z,68.34
2023-02-26T11:26:50.211Z,66.98
2023-02-26T11:27:57.101Z,66.49
2023-02-26T11:29:01.263Z,65.74
2023-02-26T11:30:19.331Z,66.14
2023-02-26T11:31:24.429Z,65.90
2023-02-26T11:32:36.061Z,66.17
2023-02-26T11:33:41.982Z,65.62
2023-02-26T11:34:51.675Z,65.84
2023-02-26T11:35:57.502Z,65.58
2023-02-26T11:37:02.092Z,65.61
2023-02-26T11:38:04.697Z,65.23
2023-02-26T11:39:10.197Z,65.67
2023-02-26T11:40:16.792Z,64.64
2023-02-26T11:41:19.912Z,65.60
2023-02-26T11:42:23.888Z,65.83
2023-02-26T11:43:30.106Z,66.27
2023-02-26T11:44:39.786Z,66.71
2023-02-26T11:45:45.355Z,69.54
2023-02-26T11:46:53.917Z,68.54
2023-02-26T11:48:10.179Z,68.97
2023-02-26T11:49:15.856Z,65.45
2023-02-26T11:50:23.181Z,65.24
2023-02-26T11:51:28.943Z,64.58
2023-02-26T11:52:38.665Z,68.24
2023-02-26T11:53:50.652Z,69.45
2023-02-26T11:54:59.743Z,68.83
2023-02-26T11:56:06.008Z,64.49
2023-02-26T11:57:15.046Z,64.05
2023-02-26T11:58:24.107Z,63.42
2023-02-26T11:59:26.744Z,66.56
2023-02-26T12:00:32.808Z,64.19
2023-02-26T12:01:36.659Z,70.71
2023-02-26T12:02:40.272Z,64.80
2023-02-26T12:03:51.782Z,63.80
2023-02-26T12:04:57.825Z,66.33
2023-02-26T12:06:01.900Z,66.43
2023-02-26T12:07:04.191Z,65.87
2023-02-26T12:08:19.467Z,69.14
2023-02-26T12:09:26.604Z,64.67
2023-02-26T12:10:32.918Z,64.22
2023-02-26T12:12:03.456Z,65.85
2023-02-26T12:13:27.996Z,68.00
2023-02-26T12:14:34.053Z,65.74
2023-02-26T12:15:46.165Z,66.95
2023-02-26T12:17:17.157Z,66.70
2023-02-26T12:18:27.056Z,66.11
2023-02-26T12:19:54.259Z,65.14
2023-02-26T12:21:15.861Z,65.43
2023-02-26T12:22:52.081Z,65.92
2023-02-26T12:24:16.615Z,66.24
2023-02-26T12:25:47.468Z,65.66
2023-02-26T12:27:03.016Z,65.71
2023-02-26T12:28:11.858Z,66.04
2023-02-26T12:29:45.943Z,65.83
2023-02-26T12:31:16.165Z,66.17
2023-02-26T12:34:05.679Z,65.96
2023-02-26T12:35:26.971Z,66.56
2023-02-26T12:36:48.002Z,66.54
2023-02-26T12:37:59.833Z,65.66
2023-02-26T12:39:27.819Z,65.85
2023-02-26T12:40:59.170Z,66.24
2023-02-26T12:42:14.029Z,66.23
2023-02-26T12:43:19.987Z,65.79
2023-02-26T12:44:35.408Z,66.35
2023-02-26T12:45:42.410Z,66.54
2023-02-26T12:47:04.410Z,65.90
2023-02-26T12:48:16.460Z,65.08
2023-02-26T12:49:40.852Z,65.67
2023-02-26T12:51:03.358Z,64.82
2023-02-26T12:52:26.453Z,65.67
2023-02-26T12:53:44.711Z,66.50
2023-02-26T12:55:17.903Z,66.42
2023-02-26T12:56:34.003Z,66.96
2023-02-26T12:58:02.610Z,67.01
2023-02-26T12:59:25.893Z,67.78
2023-02-26T13:00:44.789Z,68.17
2023-02-26T13:02:01.396Z,68.49
2023-02-26T13:03:10.081Z,68.29
2023-02-26T13:04:21.704Z,68.13
2023-02-26T13:05:42.329Z,68.42
2023-02-26T13:07:08.600Z,68.08
2023-02-26T13:08:26.966Z,67.65
2023-02-26T13:09:55.200Z,67.08
2023-02-26T13:11:07.758Z,66.72
2023-02-26T13:12:16.875Z,67.31
2023-02-26T13:13:38.013Z,67.44
2023-02-26T13:15:16.325Z,67.51
2023-02-26T13:16:55.871Z,67.90
2023-02-26T13:18:29.494Z,67.21
2023-02-26T13:19:53.575Z,67.12
2023-02-26T13:21:00.117Z,67.24
2023-02-26T13:22:24.650Z,67.44
2023-02-26T13:23:31.162Z,67.37
2023-02-26T13:24:43.839Z,67.52
2023-02-26T13:26:00.584Z,66.99
2023-02-26T13:27:07.761Z,67.34
2023-02-26T13:28:31.683Z,67.45
2023-02-26T13:29:47.878Z,67.64
2023-02-26T13:31:00.029Z,67.58
2023-02-26T13:32:14.071Z,66.83
2023-02-26T13:33:24.715Z,66.78
2023-02-26T13:34:39.180Z,66.46
2023-02-26T13:35:42.783Z,66.74
2023-02-26T13:36:46.371Z,67.21
2023-02-26T13:37:53.115Z,67.64
2023-02-26T13:39:05.473Z,67.96
2023-02-26T13:40:21.758Z,67.97
2023-02-26T13:41:48.421Z,68.54
2023-02-26T13:42:58.465Z,68.57
2023-02-26T13:44:40.026Z,68.39
2023-02-26T13:46:05.006Z,68.41
2023-02-26T13:47:16.569Z,68.03
2023-02-26T13:48:31.244Z,67.97
2023-02-26T13:49:37.549Z,68.14
2023-02-26T13:51:17.590Z,68.03
2023-02-26T13:52:27.508Z,68.06
2023-02-26T13:53:42.300Z,67.93
2023-02-26T13:54:46.435Z,67.53
2023-02-26T13:55:49.170Z,67.24
2023-02-26T13:58:30.499Z,66.86
2023-02-26T13:59:39.695Z,66.58
2023-02-26T14:00:48.545Z,67.42
2023-02-26T14:02:06.037Z,67.68
2023-02-26T14:03:14.927Z,67.13
2023-02-26T14:04:24.882Z,67.24
2023-02-26T14:05:38.520Z,66.91
2023-02-26T14:06:45.397Z,67.09
2023-02-26T14:07:51.157Z,66.96
2023-02-26T14:08:59.206Z,66.90
2023-02-26T14:10:04.882Z,67.04
2023-02-26T14:11:19.618Z,66.83
2023-02-26T14:12:25.798Z,66.86
2023-02-26T14:13:37.344Z,66.28
2023-02-26T14:14:42.067Z,66.27
2023-02-26T14:16:23.185Z,66.41
2023-02-26T14:17:36.194Z,66.63
2023-02-26T14:19:59.284Z,65.88
2023-02-26T14:21:29.110Z,65.68
2023-02-26T14:22:35.953Z,66.27
2023-02-26T14:23:41.467Z,65.71
2023-02-26T14:24:47.502Z,65.60
2023-02-26T14:25:57.740Z,65.67
2023-02-26T14:27:17.792Z,65.62
2023-02-26T14:28:28.317Z,65.32
2023-02-26T14:29:40.691Z,65.03
2023-02-26T14:31:05.197Z,65.61
2023-02-26T14:32:14.530Z,66.40
2023-02-26T14:33:19.692Z,66.36
2023-02-26T14:34:29.334Z,66.61
2023-02-26T14:35:35.406Z,66.50
2023-02-26T14:36:48.517Z,66.58
2023-02-26T14:38:02.200Z,66.36
2023-02-26T14:39:09.318Z,66.05
2023-02-26T14:40:16.896Z,66.19
2023-02-26T14:41:29.321Z,65.75
2023-02-26T14:42:56.896Z,65.71
2023-02-26T14:44:06.040Z,66.17
2023-02-26T14:45:19.425Z,65.82
2023-02-26T14:46:22.415Z,65.99
2023-02-26T14:47:27.667Z,65.84
2023-02-26T14:48:32.970Z,66.11
2023-02-26T14:49:39.483Z,65.46
2023-02-26T14:51:01.515Z,65.43
2023-02-26T14:52:27.357Z,65.95
2023-02-26T14:53:48.202Z,66.34
2023-02-26T14:55:18.402Z,66.65
2023-02-26T14:56:24.362Z,66.93
2023-02-26T14:57:36.157Z,66.70
2023-02-26T14:59:06.851Z,66.94
2023-02-26T15:03:11.555Z,67.83
2023-02-26T15:04:27.769Z,68.43
2023-02-26T15:05:46.188Z,68.45